Time;durP1;ratioP1;P1;durP2;ratioP2;P2;SDS_P1;SDS_P2;PMS_P1;PMS_P2;Temp;Humidity;BMP_temperature;BMP_pressure;BME280_temperature;BME280_humidity;BME280_pressure;Samples;Min_cycle;Max_cycle;Signal;HPM_P1;HPM_P2
2022/02/19 00:01:56;;;;;;;11.50;3.80;;;;;;;4.43;52.65;98647.31;8470372;33;20410;-77
2022/02/19 00:07:00;;;;;;;12.88;2.35;;;;;;;4.23;51.93;98730.53;8470989;33;20132;-75
2022/02/19 00:12:03;;;;;;;6.88;1.98;;;;;;;4.52;52.07;98691.75;8470825;33;21238;-75
2022/02/19 00:17:06;;;;;;;7.47;3.00;;;;;;;4.31;51.77;98720.13;8471535;33;20542;-77
2022/02/19 00:22:11;;;;;;;6.05;2.75;;;;;;;4.38;52.14;98690.22;8469361;33;20468;-75
2022/02/19 00:27:14;;;;;;;6.63;2.72;;;;;;;4.15;51.97;98657.56;8470304;33;20423;-77
2022/02/19 00:32:17;;;;;;;9.38;2.70;;;;;;;4.40;52.54;98720.19;8469723;33;20186;-76
2022/02/19 00:37:22;;;;;;;8.52;2.85;;;;;;;4.28;52.37;98762.88;8469627;33;20378;-77
2022/02/19 00:42:25;;;;;;;11.25;2.70;;;;;;;4.59;52.39;98738.13;8469682;33;20533;-77
2022/02/19 00:47:28;;;;;;;9.52;2.95;;;;;;;4.59;53.18;98785.16;8469806;33;20511;-77
2022/02/19 00:52:33;;;;;;;11.68;2.95;;;;;;;4.15;52.63;98850.72;8469759;33;20322;-77
2022/02/19 00:57:36;;;;;;;11.90;3.15;;;;;;;3.92;53.43;98802.91;8483232;33;20446;-76
2022/02/19 01:02:40;;;;;;;10.07;3.28;;;;;;;3.74;52.84;98727.31;8496541;33;20386;-76
2022/02/19 01:07:50;;;;;;;5.80;2.20;;;;;;;3.51;53.52;98774.22;8540242;33;20286;-76
2022/02/19 01:12:53;;;;;;;4.65;2.70;;;;;;;3.77;53.60;98835.97;8463508;33;20420;-76
2022/02/19 01:17:56;;;;;;;9.98;2.20;;;;;;;3.82;53.46;98844.41;8472269;33;20506;-75
2022/02/19 01:23:01;;;;;;;5.15;2.38;;;;;;;3.85;54.61;98857.47;8464915;33;20188;-75
2022/02/19 01:28:05;;;;;;;8.18;3.30;;;;;;;3.41;54.28;98892.72;8466923;33;20943;-75
2022/02/19 01:33:11;;;;;;;4.95;2.25;;;;;;;3.34;55.89;98864.94;8463897;33;20433;-76
2022/02/19 01:38:17;;;;;;;5.63;2.28;;;;;;;3.56;55.88;98865.00;8466448;33;20423;-76
2022/02/19 01:43:22;;;;;;;10.20;2.75;;;;;;;3.40;56.55;98899.84;8489138;33;20140;-76
2022/02/19 01:48:25;;;;;;;6.90;2.40;;;;;;;3.35;56.38;98915.25;8474622;33;20489;-75
2022/02/19 01:53:32;;;;;;;8.20;2.50;;;;;;;3.48;56.07;98872.69;8461110;33;20512;-75
2022/02/19 01:58:42;;;;;;;6.82;2.28;;;;;;;3.38;56.98;98919.50;8534745;33;20432;-76
2022/02/19 02:03:48;;;;;;;6.70;2.25;;;;;;;3.61;56.23;98913.28;8488670;33;20445;-76
2022/02/19 02:09:01;;;;;;;5.28;2.53;;;;;;;3.40;57.36;98997.19;8499597;33;20434;-75
2022/02/19 02:14:10;;;;;;;6.85;1.90;;;;;;;3.57;57.50;98937.56;8474748;33;21570;-75
2022/02/19 02:19:34;;;;;;;6.55;2.05;;;;;;;3.53;57.55;99005.09;8465623;33;20395;-74
2022/02/19 02:24:55;;;;;;;7.10;3.00;;;;;;;3.62;57.13;98952.19;8474389;33;20136;-76
2022/02/19 02:30:17;;;;;;;10.45;2.95;;;;;;;3.45;57.51;98926.88;8488181;33;20518;-74
2022/02/19 02:35:25;;;;;;;9.35;2.42;;;;;;;3.35;57.50;98962.19;8472103;33;20445;-77
2022/02/19 02:40:31;;;;;;;5.72;2.22;;;;;;;3.40;58.41;98981.25;8550109;33;21104;-75
2022/02/19 02:45:37;;;;;;;4.13;2.40;;;;;;;3.40;58.47;98987.44;8493624;33;20439;-76
2022/02/19 02:50:57;;;;;;;3.05;2.58;;;;;;;3.16;58.44;99016.59;8466127;33;20408;-75
2022/02/19 02:56:17;;;;;;;6.35;2.08;;;;;;;3.28;58.64;99010.41;8488944;33;20266;-75
2022/02/19 03:01:20;;;;;;;6.85;2.03;;;;;;;3.43;58.50;99045.63;8488101;33;20409;-75
2022/02/19 03:06:23;;;;;;;6.63;3.22;;;;;;;3.42;58.51;99043.91;8491513;33;20405;-75
2022/02/19 03:11:29;;;;;;;7.00;2.55;;;;;;;3.50;58.69;99053.97;8461693;33;20236;-76
2022/02/19 03:16:33;;;;;;;5.15;3.05;;;;;;;3.17;58.93;99020.94;8469395;33;20930;-77
2022/02/19 03:21:36;;;;;;;5.50;2.92;;;;;;;3.33;59.36;99080.91;8492971;33;20461;-77
2022/02/19 03:26:41;;;;;;;9.13;2.92;;;;;;;3.10;59.66;99070.13;8470821;33;20469;-76
2022/02/19 03:31:50;;;;;;;5.25;2.35;;;;;;;2.95;61.48;99180.78;8466934;33;20410;-77
2022/02/19 03:36:59;;;;;;;7.47;2.17;;;;;;;2.88;63.30;99101.75;8469285;33;20818;-77
2022/02/19 03:42:04;;;;;;;6.35;2.22;;;;;;;2.57;67.10;99094.09;8469591;33;20413;-77
2022/02/19 03:47:08;;;;;;;3.92;2.20;;;;;;;2.31;70.24;99121.50;8492491;33;20392;-77
2022/02/19 03:52:25;;;;;;;11.07;3.33;;;;;;;2.13;72.37;99181.84;8470339;33;20454;-77
2022/02/19 03:57:31;;;;;;;6.50;2.42;;;;;;;1.94;73.10;99209.50;8469827;33;20995;-77
2022/02/19 04:02:38;;;;;;;9.18;2.28;;;;;;;1.78;74.34;99177.00;8480531;33;20190;-77
2022/02/19 04:07:42;;;;;;;8.48;2.67;;;;;;;1.68;73.22;99200.59;8492024;33;20408;-76
2022/02/19 04:12:53;;;;;;;3.88;2.38;;;;;;;2.02;70.88;99206.38;8468078;33;20424;-77
2022/02/19 04:18:28;;;;;;;8.20;2.42;;;;;;;2.13;69.29;99237.47;8468086;33;20891;-77
2022/02/19 04:23:31;;;;;;;5.82;2.80;;;;;;;2.02;69.63;99221.44;8468373;33;20147;-77
2022/02/19 04:28:40;;;;;;;9.88;2.45;;;;;;;2.18;69.22;99273.31;8478609;33;21657;-76
2022/02/19 04:33:46;;;;;;;2.67;1.88;;;;;;;2.63;68.33;99282.88;8464501;33;21130;-77
2022/02/19 04:38:49;;;;;;;7.82;2.90;;;;;;;2.60;66.47;99273.31;8509025;33;20896;-77
2022/02/19 04:43:53;;;;;;;5.35;2.20;;;;;;;2.48;66.43;99263.50;8482071;33;21638;-77
2022/02/19 04:48:58;;;;;;;6.68;3.10;;;;;;;2.61;66.13;99318.31;8481134;33;20333;-76
2022/02/19 04:54:01;;;;;;;6.45;2.42;;;;;;;2.53;65.43;99279.97;8463322;33;20311;-77
2022/02/19 04:59:09;;;;;;;3.33;2.08;;;;;;;2.79;64.06;99326.84;8468008;33;20424;-77
2022/02/19 05:04:19;;;;;;;5.55;2.60;;;;;;;2.88;63.99;99345.75;8482811;33;20413;-77
2022/02/19 05:09:35;;;;;;;4.05;1.98;;;;;;;2.75;63.29;99367.78;8471589;33;20399;-77
2022/02/19 05:14:43;;;;;;;4.25;2.15;;;;;;;2.93;62.76;99354.28;8472249;33;20437;-77
2022/02/19 05:19:56;;;;;;;12.38;3.10;;;;;;;2.84;62.46;99401.66;8471037;33;20412;-77
2022/02/19 05:24:59;;;;;;;4.78;2.40;;;;;;;2.97;62.77;99383.16;8470865;33;20395;-77
2022/02/19 05:30:07;;;;;;;4.10;1.63;;;;;;;2.95;62.12;99389.50;8470438;33;20396;-78
2022/02/19 05:35:14;;;;;;;4.40;2.05;;;;;;;2.90;62.04;99420.78;8492870;33;20420;-77
2022/02/19 05:40:17;;;;;;;10.00;1.98;;;;;;;3.04;61.78;99434.00;8468655;33;20476;-78
2022/02/19 05:45:23;;;;;;;3.47;1.40;;;;;;;3.28;61.57;99440.38;8492615;33;20405;-77
2022/02/19 05:50:29;;;;;;;6.78;2.53;;;;;;;2.85;62.45;99471.47;8469384;33;20445;-77
2022/02/19 05:55:37;;;;;;;6.95;2.28;;;;;;;3.10;62.39;99470.78;8467899;33;20457;-78
2022/02/19 06:00:42;;;;;;;7.70;2.72;;;;;;;2.89;62.01;99475.66;8467568;33;20471;-76
2022/02/19 06:05:46;;;;;;;11.00;2.78;;;;;;;3.11;62.12;99485.75;8475939;33;20209;-77
2022/02/19 06:10:50;;;;;;;5.65;2.25;;;;;;;3.14;61.20;99485.53;8476826;33;20556;-77
2022/02/19 06:15:58;;;;;;;6.18;2.47;;;;;;;2.94;61.52;99464.75;8499092;33;20272;-77
2022/02/19 06:21:23;;;;;;;6.05;2.58;;;;;;;2.86;59.38;99498.88;8475824;33;20418;-77
2022/02/19 06:26:27;;;;;;;7.80;2.75;;;;;;;2.67;61.13;99518.59;8474813;33;20256;-77
2022/02/19 06:31:54;;;;;;;9.15;2.88;;;;;;;2.68;61.33;99525.59;8462037;33;20481;-77
2022/02/19 06:36:57;;;;;;;8.25;2.47;;;;;;;2.59;61.93;99542.06;8482710;33;20426;-77
2022/02/19 06:42:06;;;;;;;7.78;3.00;;;;;;;2.68;62.03;99599.00;8503807;33;20396;-77
2022/02/19 06:47:46;;;;;;;8.30;2.90;;;;;;;2.44;62.30;99572.13;8482375;33;20159;-77
2022/02/19 06:52:51;;;;;;;2.70;2.10;;;;;;;2.22;64.88;99607.00;8487813;33;20431;-77
2022/02/19 06:57:57;;;;;;;3.30;2.20;;;;;;;2.27;65.91;99648.19;8510511;33;20400;-77
2022/02/19 07:03:07;;;;;;;2.55;2.28;;;;;;;2.16;65.74;99651.44;8492723;33;20399;-77
2022/02/19 07:08:15;;;;;;;6.47;2.95;;;;;;;2.21;64.87;99664.44;8492112;33;20393;-76
2022/02/19 07:13:19;;;;;;;9.38;2.85;;;;;;;2.47;65.52;99680.63;8494366;33;20469;-78
2022/02/19 07:18:23;;;;;;;6.95;2.15;;;;;;;2.69;65.09;99691.72;8495728;33;21214;-77
2022/02/19 07:23:36;;;;;;;9.07;2.38;;;;;;;2.39;65.14;99691.69;8495534;33;20212;-77
2022/02/19 07:28:41;;;;;;;7.65;2.53;;;;;;;2.69;65.01;99710.28;8498799;33;20547;-78
2022/02/19 07:33:46;;;;;;;6.53;2.35;;;;;;;2.61;65.56;99745.22;8498743;33;20129;-77
2022/02/19 07:39:04;;;;;;;7.70;2.85;;;;;;;2.61;66.51;99753.16;8499250;33;20448;-78
2022/02/19 07:44:11;;;;;;;4.60;2.50;;;;;;;2.42;66.35;99770.19;8500849;33;20435;-76
2022/02/19 08:00:37;;;;;;;8.60;3.30;;;;;;;2.93;65.33;99782.25;8499448;33;20409;-79
2022/02/19 08:05:45;;;;;;;8.15;2.00;;;;;;;2.54;66.42;99836.66;8473555;33;20393;-78
2022/02/19 08:10:49;;;;;;;5.95;2.33;;;;;;;2.29;67.03;99842.44;8472731;33;20395;-77
2022/02/19 08:15:52;;;;;;;7.47;2.67;;;;;;;2.59;67.47;99841.69;8474035;33;20510;-79
2022/02/19 08:20:56;;;;;;;10.57;2.72;;;;;;;2.24;68.70;99883.38;8476505;33;20401;-78
2022/02/19 08:26:00;;;;;;;7.97;2.83;;;;;;;2.25;70.08;99883.31;8474238;33;20431;-79
2022/02/19 08:31:03;;;;;;;5.50;2.60;;;;;;;2.05;72.24;99884.38;8473794;33;20535;-78
2022/02/19 08:36:08;;;;;;;3.33;2.78;;;;;;;2.16;72.77;99907.63;8474103;33;20783;-79
2022/02/19 08:41:11;;;;;;;8.52;3.42;;;;;;;1.90;73.43;99933.72;8481286;33;20395;-78
2022/02/19 08:46:14;;;;;;;5.88;3.03;;;;;;;1.85;74.42;99930.47;8482316;33;20417;-78
2022/02/19 08:51:19;;;;;;;7.63;3.35;;;;;;;1.99;73.95;99944.78;8479305;33;20448;-79
2022/02/19 08:56:22;;;;;;;8.90;4.00;;;;;;;2.03;73.83;99944.56;8477664;33;20229;-78
2022/02/19 09:01:27;;;;;;;11.00;3.70;;;;;;;2.11;73.50;99938.81;8473512;33;20442;-80
2022/02/19 09:06:32;;;;;;;10.00;3.97;;;;;;;2.03;72.87;99976.34;8481001;33;20493;-77
2022/02/19 09:11:37;;;;;;;4.13;3.15;;;;;;;2.20;72.82;99971.94;8447019;33;20421;-78
2022/02/19 09:16:40;;;;;;;11.10;4.10;;;;;;;2.44;72.39;99969.75;8427125;33;20250;-79
2022/02/19 09:21:46;;;;;;;7.22;3.40;;;;;;;2.24;71.77;99953.13;8457075;33;21001;-80
2022/02/19 09:26:49;;;;;;;5.18;2.92;;;;;;;2.36;71.75;100004.66;8420245;33;20455;-80
2022/02/19 09:31:53;;;;;;;8.50;2.80;;;;;;;2.61;70.82;99983.03;8423872;33;20476;-79
2022/02/19 09:36:59;;;;;;;10.38;4.35;;;;;;;3.08;68.31;99983.97;8431637;33;20445;-80
2022/02/19 09:42:05;;;;;;;9.70;3.17;;;;;;;3.01;69.09;99975.50;8426295;33;21721;-79
2022/02/19 09:47:08;;;;;;;6.88;2.65;;;;;;;3.61;66.15;99983.53;8423311;33;20407;-80
2022/02/19 09:52:13;;;;;;;7.72;2.70;;;;;;;3.42;65.93;99977.59;8413323;33;20451;-78
2022/02/19 09:57:16;;;;;;;3.97;2.45;;;;;;;4.14;64.75;100029.13;8447713;33;20514;-80
2022/02/19 10:02:31;;;;;;;7.78;2.58;;;;;;;3.87;65.36;99986.50;8427884;33;20478;-79
2022/02/19 10:07:37;;;;;;;10.93;3.13;;;;;;;3.79;63.69;100025.94;8443889;33;20136;-79
2022/02/19 10:12:48;;;;;;;10.85;3.60;;;;;;;3.54;66.02;100021.16;8414662;33;20432;-78
2022/02/19 10:17:51;;;;;;;8.05;3.20;;;;;;;3.25;65.66;100013.06;8413128;33;20507;-77
2022/02/19 10:22:56;;;;;;;11.52;2.95;;;;;;;3.27;65.61;100038.59;8411142;33;20961;-77
2022/02/19 10:28:04;;;;;;;9.70;2.88;;;;;;;3.78;64.58;100011.78;8411951;33;20424;-77
2022/02/19 10:33:09;;;;;;;9.68;1.83;;;;;;;3.73;64.89;100025.34;8418729;33;20125;-77
2022/02/19 10:38:16;;;;;;;7.25;2.47;;;;;;;4.07;64.52;100036.63;8439162;33;20392;-77
2022/02/19 10:43:23;;;;;;;7.43;2.63;;;;;;;3.83;63.58;100041.59;8437816;33;20224;-77
2022/02/19 10:48:34;;;;;;;3.97;1.40;;;;;;;3.95;63.56;100051.53;8435637;33;20487;-77
2022/02/19 10:53:39;;;;;;;5.30;2.38;;;;;;;3.48;64.25;100049.81;8416166;33;20677;-78
2022/02/19 10:59:01;;;;;;;5.07;2.38;;;;;;;3.39;63.91;100060.94;8414096;33;20183;-78
2022/02/19 11:04:05;;;;;;;9.00;3.28;;;;;;;3.60;63.27;100066.00;8413854;33;21041;-78
2022/02/19 11:09:12;;;;;;;4.97;2.00;;;;;;;3.59;63.98;100059.78;8411166;33;20298;-76
2022/02/19 11:14:16;;;;;;;6.72;2.33;;;;;;;3.53;63.63;100069.94;8410889;33;20440;-75
2022/02/19 11:19:20;;;;;;;7.25;3.60;;;;;;;4.00;62.08;100048.56;8499978;33;20413;-76
2022/02/19 11:24:25;;;;;;;7.55;2.85;;;;;;;3.79;61.96;100052.50;8523839;33;20412;-76
2022/02/19 11:29:29;;;;;;;5.30;2.22;;;;;;;3.81;61.03;100050.59;8530741;33;20419;-76
2022/02/19 11:34:32;;;;;;;8.80;2.78;;;;;;;4.90;58.03;100068.81;8535982;33;20400;-77
2022/02/19 11:40:00;;;;;;;5.20;2.17;;;;;;;4.32;57.88;100049.31;8534328;33;20394;-77
2022/02/19 11:45:27;;;;;;;5.47;2.30;;;;;;;4.04;60.21;100062.56;8535995;33;20971;-77
2022/02/19 11:50:32;;;;;;;3.60;1.80;;;;;;;4.35;58.36;100053.59;8535415;33;20995;-77
2022/02/19 11:55:38;;;;;;;3.92;1.83;;;;;;;4.40;58.33;100051.50;8534111;33;20417;-70
2022/02/19 12:00:49;;;;;;;10.88;3.03;;;;;;;4.36;57.45;100068.59;8527677;33;20376;-70
2022/02/19 12:06:25;;;;;;;6.93;2.08;;;;;;;3.89;58.54;100062.47;8528952;33;20392;-73
2022/02/19 12:11:29;;;;;;;5.57;2.15;;;;;;;3.76;60.13;100076.56;8518599;33;20424;-72
2022/02/19 12:16:47;;;;;;;3.92;2.00;;;;;;;3.90;59.41;100082.81;8529565;33;21041;-72
2022/02/19 12:21:50;;;;;;;6.07;1.80;;;;;;;3.88;58.56;100121.06;8481866;33;20243;-72
2022/02/19 12:27:15;;;;;;;1.25;1.15;;;;;;;4.28;57.78;100098.31;8529026;33;20411;-72
2022/02/19 12:32:20;;;;;;;2.38;1.65;;;;;;;4.25;57.04;100098.50;8528606;33;20519;-73
2022/02/19 12:37:25;;;;;;;8.90;2.67;;;;;;;4.40;56.07;100084.28;8561124;33;21105;-73
2022/02/19 12:42:31;;;;;;;5.15;1.85;;;;;;;4.20;56.64;100097.91;8591381;33;20151;-73
2022/02/19 12:47:36;;;;;;;6.50;2.33;;;;;;;4.36;56.34;100084.53;8576031;33;20923;-72
2022/02/19 12:52:39;;;;;;;6.45;1.98;;;;;;;5.21;53.95;100080.22;8604120;33;21629;-73
2022/02/19 12:57:45;;;;;;;6.10;2.00;;;;;;;5.97;51.02;100046.88;8604942;33;21006;-72
2022/02/19 13:02:56;;;;;;;5.70;2.22;;;;;;;7.72;46.03;100049.59;8605066;33;20770;-72
2022/02/19 13:08:08;;;;;;;2.45;1.55;;;;;;;7.89;47.32;100071.53;8583319;33;20452;-71
2022/02/19 13:13:21;;;;;;;7.32;2.33;;;;;;;7.95;46.89;100071.94;8605721;33;20139;-72
2022/02/19 13:18:39;;;;;;;11.13;2.78;;;;;;;7.53;46.80;100041.22;8606831;33;20988;-73
2022/02/19 13:23:43;;;;;;;3.75;1.65;;;;;;;8.43;45.45;100071.00;8608517;33;20468;-73
2022/02/19 13:28:53;;;;;;;5.50;1.70;;;;;;;7.46;46.84;100072.91;8602548;33;20408;-72
2022/02/19 13:33:58;;;;;;;4.95;1.98;;;;;;;6.74;47.08;100069.16;8609655;33;20213;-73
2022/02/19 13:39:15;;;;;;;7.03;2.13;;;;;;;6.76;46.54;100078.75;8614964;33;20447;-73
2022/02/19 13:44:19;;;;;;;4.47;2.00;;;;;;;7.00;46.39;100062.84;8620022;33;20580;-72
2022/02/19 13:49:23;;;;;;;4.22;2.03;;;;;;;7.39;46.19;100071.63;8616291;33;22222;-74
2022/02/19 13:54:26;;;;;;;3.50;1.60;;;;;;;6.08;48.05;100092.34;8619557;33;20451;-72
2022/02/19 13:59:31;;;;;;;3.00;1.52;;;;;;;6.34;48.57;100071.91;8581950;33;20520;-72
2022/02/19 14:04:35;;;;;;;3.70;1.40;;;;;;;6.20;48.29;100077.31;8547072;33;20458;-72
2022/02/19 14:09:39;;;;;;;2.88;2.50;;;;;;;6.49;48.46;100064.66;8549415;33;21518;-71
2022/02/19 14:14:46;;;;;;;3.22;1.77;;;;;;;5.59;48.63;100059.09;8552068;33;20912;-72
2022/02/19 14:19:58;;;;;;;2.55;1.90;;;;;;;6.04;48.71;100046.38;8545872;33;20593;-74
2022/02/19 14:25:06;;;;;;;3.20;2.22;;;;;;;5.71;49.09;100060.13;8544559;33;20167;-72
2022/02/19 14:30:12;;;;;;;2.85;1.52;;;;;;;5.74;48.50;100033.28;8544070;33;20213;-72
2022/02/19 14:35:15;;;;;;;3.08;1.85;;;;;;;5.62;48.67;100042.94;8542013;33;20577;-73
2022/02/19 14:40:18;;;;;;;4.85;1.77;;;;;;;6.27;48.64;100026.13;8539923;33;20151;-74
2022/02/19 14:45:22;;;;;;;2.58;2.08;;;;;;;5.99;48.44;100055.63;8539955;33;20187;-74
2022/02/19 14:50:26;;;;;;;5.40;2.53;;;;;;;5.44;48.52;100038.81;8597779;33;20392;-72
2022/02/19 14:55:29;;;;;;;5.70;2.33;;;;;;;5.93;49.12;100033.75;8595647;33;20409;-73
2022/02/19 15:00:33;;;;;;;4.68;1.88;;;;;;;5.85;49.33;100033.41;8602936;33;20159;-72
2022/02/19 15:05:37;;;;;;;2.67;1.77;;;;;;;6.09;49.57;100035.41;8620862;33;20922;-73
2022/02/19 15:10:40;;;;;;;4.95;2.25;;;;;;;5.84;49.38;100044.16;8615836;33;20263;-72
2022/02/19 15:15:45;;;;;;;5.00;2.22;;;;;;;5.75;49.00;100029.66;8607418;33;20456;-73
2022/02/19 15:20:48;;;;;;;2.33;1.70;;;;;;;5.68;49.87;100026.56;8603529;33;20183;-72
2022/02/19 15:25:52;;;;;;;3.17;1.75;;;;;;;5.35;49.66;100034.06;8602251;33;20415;-74
2022/02/19 15:30:56;;;;;;;2.20;1.40;;;;;;;4.95;50.70;100036.59;8602635;33;20409;-72
2022/02/19 15:35:59;;;;;;;3.25;1.67;;;;;;;5.20;50.80;100023.47;8577689;33;21142;-74
2022/02/19 15:41:04;;;;;;;6.32;2.47;;;;;;;5.06;49.64;100045.63;8596941;33;20418;-73
2022/02/19 15:46:09;;;;;;;7.63;2.28;;;;;;;4.91;50.15;100012.00;8595094;33;20928;-73
2022/02/19 15:51:12;;;;;;;5.13;1.55;;;;;;;5.13;49.84;100019.50;8596054;33;20214;-73
2022/02/19 15:56:15;;;;;;;5.30;2.08;;;;;;;4.91;50.56;99998.69;8597234;33;21385;-74
2022/02/19 16:01:20;;;;;;;5.18;2.10;;;;;;;4.95;50.23;99996.69;8577207;33;20465;-73
2022/02/19 16:06:23;;;;;;;2.88;1.60;;;;;;;4.83;50.60;99991.19;8602300;33;20538;-73
2022/02/19 16:11:26;;;;;;;3.15;1.95;;;;;;;4.90;50.83;99994.28;8605905;33;20176;-72
2022/02/19 16:16:30;;;;;;;2.90;1.75;;;;;;;4.72;51.53;99983.03;8605959;33;20201;-74
2022/02/19 16:21:33;;;;;;;3.78;1.85;;;;;;;5.04;51.04;99973.00;8597510;33;21940;-73
2022/02/19 16:26:36;;;;;;;2.35;1.20;;;;;;;5.21;51.12;99963.06;8607868;33;20574;-73
2022/02/19 16:31:41;;;;;;;3.72;1.88;;;;;;;4.80;51.95;99948.81;8578001;33;20431;-72
2022/02/19 16:36:44;;;;;;;3.97;1.77;;;;;;;4.90;52.14;99969.50;8604708;33;21380;-72
2022/02/19 16:41:47;;;;;;;11.40;1.88;;;;;;;4.77;52.54;99956.97;8612309;33;20435;-74
2022/02/19 16:46:52;;;;;;;2.10;1.77;;;;;;;5.05;52.35;99957.91;8607180;33;22543;-76
2022/02/19 16:51:55;;;;;;;2.85;1.92;;;;;;;4.92;52.60;99954.28;8604844;33;20601;-76
2022/02/19 16:56:58;;;;;;;3.38;2.08;;;;;;;4.93;52.20;99942.69;8606722;33;20187;-75
2022/02/19 17:02:02;;;;;;;3.35;1.92;;;;;;;4.87;52.56;99953.72;8604537;33;20131;-75
2022/02/19 17:07:08;;;;;;;3.83;1.83;;;;;;;4.93;52.63;99951.50;8605169;33;20408;-73
2022/02/19 17:12:11;;;;;;;4.25;1.95;;;;;;;5.12;52.33;99943.22;8549069;33;20186;-75
2022/02/19 17:17:15;;;;;;;2.97;1.30;;;;;;;4.85;52.54;99929.84;8560607;33;20648;-75
2022/02/19 17:22:19;;;;;;;4.63;1.58;;;;;;;4.98;52.17;99920.13;8559426;33;21148;-73
2022/02/19 17:27:22;;;;;;;6.53;2.25;;;;;;;4.94;52.38;99923.97;8561167;33;20629;-76
2022/02/19 17:32:26;;;;;;;2.13;1.63;;;;;;;4.94;52.04;99929.28;8517436;33;20156;-75
2022/02/19 17:37:29;;;;;;;10.90;2.22;;;;;;;5.09;52.23;99945.25;8510555;33;20450;-75
2022/02/19 17:42:32;;;;;;;4.47;2.00;;;;;;;4.61;54.13;99922.50;8511091;33;20479;-75
2022/02/19 17:47:37;;;;;;;3.33;1.63;;;;;;;4.67;53.92;99926.59;8511798;33;20550;-75
2022/02/19 17:52:41;;;;;;;4.35;3.10;;;;;;;4.49;56.34;99912.63;8504082;33;20611;-75
2022/02/19 17:57:45;;;;;;;8.82;2.05;;;;;;;4.37;56.33;99924.06;8503080;33;20240;-75
2022/02/19 18:02:51;;;;;;;4.35;1.60;;;;;;;4.53;56.30;99895.53;8535037;33;21194;-74
2022/02/19 18:07:54;;;;;;;1.77;1.67;;;;;;;4.81;55.21;99883.97;8608345;33;20196;-74
2022/02/19 18:12:58;;;;;;;4.00;2.63;;;;;;;5.34;53.84;99873.41;8612367;33;20186;-75
2022/02/19 18:18:02;;;;;;;8.40;2.05;;;;;;;5.24;53.59;99861.69;8611092;33;20206;-74
2022/02/19 18:23:05;;;;;;;2.83;1.63;;;;;;;5.22;52.76;99856.47;8603266;33;20446;-74
2022/02/19 18:28:08;;;;;;;5.35;2.13;;;;;;;5.37;52.69;99843.06;8602117;33;20418;-73
2022/02/19 18:33:14;;;;;;;11.65;2.30;;;;;;;5.26;52.95;99823.31;8602181;33;20450;-74
2022/02/19 18:38:19;;;;;;;6.80;2.30;;;;;;;5.20;53.09;99818.41;8602199;33;20162;-74
2022/02/19 18:43:22;;;;;;;5.78;1.98;;;;;;;5.10;53.02;99811.16;8602385;33;20657;-73
2022/02/19 18:48:40;;;;;;;6.15;1.90;;;;;;;5.25;52.80;99805.66;8602413;33;21137;-74
2022/02/19 18:53:43;;;;;;;1.52;1.38;;;;;;;4.86;54.09;99808.31;8609593;33;20151;-72
2022/02/19 18:58:46;;;;;;;4.10;2.10;;;;;;;4.97;54.12;99813.78;8603706;33;20234;-73
2022/02/19 19:03:50;;;;;;;3.05;1.85;;;;;;;4.96;55.09;99780.09;8604385;33;20152;-74
2022/02/19 19:08:53;;;;;;;9.00;3.08;;;;;;;4.88;56.10;99777.94;8601257;33;20485;-73
2022/02/19 19:13:56;;;;;;;4.53;2.13;;;;;;;4.87;56.58;99772.75;8602088;33;20853;-75
2022/02/19 19:19:01;;;;;;;2.97;1.45;;;;;;;4.88;56.78;99763.81;8601407;33;20403;-73
2022/02/19 19:24:06;;;;;;;2.67;1.70;;;;;;;5.05;57.31;99756.44;8600991;33;20256;-74
2022/02/19 19:29:10;;;;;;;4.05;1.73;;;;;;;4.37;59.71;99753.88;8600690;33;20381;-74
2022/02/19 19:34:16;;;;;;;3.08;1.40;;;;;;;4.15;63.32;99781.84;8592986;33;20448;-74
2022/02/19 19:39:20;;;;;;;2.83;2.10;;;;;;;3.95;65.38;99775.13;8598146;33;20498;-74
2022/02/19 19:44:23;;;;;;;5.28;1.80;;;;;;;3.69;68.96;99759.97;8598918;33;20631;-75
2022/02/19 19:49:28;;;;;;;1.63;1.48;;;;;;;3.80;69.30;99767.28;8603950;33;20174;-74
2022/02/19 19:54:33;;;;;;;3.75;1.90;;;;;;;3.33;72.03;99741.84;8582298;33;20418;-75
2022/02/19 19:59:38;;;;;;;1.48;1.23;;;;;;;3.21;72.60;99720.44;8606953;33;20162;-75
2022/02/19 20:04:43;;;;;;;2.70;1.60;;;;;;;2.73;78.99;99735.66;8609724;33;20454;-72
2022/02/19 20:09:46;;;;;;;1.48;1.38;;;;;;;2.53;81.78;99760.72;8601973;33;20490;-74
2022/02/19 20:14:49;;;;;;;5.28;2.13;;;;;;;2.10;83.51;99723.34;8600048;33;20280;-75
2022/02/19 20:19:53;;;;;;;3.45;1.80;;;;;;;1.95;85.00;99721.59;8600800;33;20162;-76
2022/02/19 20:24:57;;;;;;;3.75;2.17;;;;;;;1.73;86.13;99717.47;8608522;33;20183;-77
2022/02/19 20:30:01;;;;;;;3.15;1.55;;;;;;;1.92;85.92;99698.75;8606475;33;20501;-77
2022/02/19 20:35:08;;;;;;;2.05;1.60;;;;;;;1.76;86.29;99678.53;8596421;33;20409;-76
2022/02/19 20:40:15;;;;;;;4.60;2.00;;;;;;;1.91;86.03;99657.31;8592801;33;20411;-77
2022/02/19 20:45:18;;;;;;;3.42;2.03;;;;;;;1.68;86.61;99663.06;8601102;33;20254;-76
2022/02/19 20:50:24;;;;;;;2.05;1.95;;;;;;;1.93;86.63;99628.94;8606601;33;20525;-77
2022/02/19 20:55:27;;;;;;;6.20;2.60;;;;;;;1.80;87.26;99612.03;8607136;33;20147;-76
2022/02/19 21:00:30;;;;;;;4.28;2.70;;;;;;;2.07;87.24;99590.22;8623653;33;21056;-76
2022/02/19 21:05:36;;;;;;;5.93;2.40;;;;;;;1.83;87.56;99572.16;8626428;33;20415;-78
2022/02/19 21:10:39;;;;;;;4.03;2.50;;;;;;;1.86;87.98;99548.13;8626935;33;20448;-77
2022/02/19 21:15:42;;;;;;;5.68;3.03;;;;;;;2.08;87.49;99530.97;8638202;33;20441;-77
2022/02/19 21:20:46;;;;;;;3.28;2.45;;;;;;;1.95;87.88;99523.78;8642967;33;20462;-78
2022/02/19 21:25:50;;;;;;;21.05;2.00;;;;;;;1.73;88.51;99507.44;8632404;33;20140;-77
2022/02/19 21:38:13;;;;;;;2.65;2.15;;;;;;;1.81;88.45;99522.84;8622053;33;20179;-76
2022/02/19 21:43:16;;;;;;;5.05;2.65;;;;;;;1.84;88.54;99489.13;8618540;33;20477;-77
2022/02/19 21:48:39;;;;;;;6.13;2.67;;;;;;;1.59;89.66;99496.78;8615121;33;21124;-76
2022/02/19 21:53:43;;;;;;;2.40;1.80;;;;;;;1.58;89.49;99482.69;8620898;33;20481;-76
2022/02/19 21:58:47;;;;;;;7.97;2.47;;;;;;;1.31;90.85;99463.13;8613951;33;20423;-77
2022/02/19 22:03:50;;;;;;;3.37;2.83;;;;;;;1.50;90.41;99447.88;8618853;33;20150;-78
2022/02/19 22:08:54;;;;;;;2.37;2.20;;;;;;;1.55;89.57;99429.09;8583148;33;20148;-77
2022/02/19 22:13:57;;;;;;;3.50;2.20;;;;;;;1.60;89.67;99427.88;8602475;33;20411;-77
2022/02/19 22:19:01;;;;;;;2.03;1.83;;;;;;;1.43;90.21;99420.94;8603191;33;20411;-77
2022/02/19 22:24:08;;;;;;;5.32;2.78;;;;;;;1.53;89.87;99423.03;8600751;33;20191;-77
2022/02/19 22:29:12;;;;;;;1.73;1.58;;;;;;;1.60;90.24;99398.75;8600861;33;22149;-76
2022/02/19 22:34:15;;;;;;;1.70;1.60;;;;;;;1.84;89.40;99396.44;8600062;33;20174;-76
2022/02/19 22:39:20;;;;;;;3.92;2.58;;;;;;;1.99;89.59;99378.75;8600303;33;20431;-77
2022/02/19 22:44:23;;;;;;;4.17;2.40;;;;;;;1.48;90.31;99379.16;8602218;33;20998;-77
2022/02/19 22:49:26;;;;;;;3.00;2.67;;;;;;;1.54;91.00;99359.44;8605096;33;20453;-77
2022/02/19 22:54:30;;;;;;;1.70;1.60;;;;;;;1.40;92.16;99351.44;8608596;33;20342;-79
2022/02/19 22:59:33;;;;;;;3.63;2.07;;;;;;;1.68;92.00;99334.75;8608019;33;20931;-78
2022/02/19 23:09:59;;;;;;;2.15;1.95;;;;;;;1.52;92.94;99324.25;8607827;33;20522;-78
2022/02/19 23:15:02;;;;;;;2.85;2.55;;;;;;;1.56;94.08;99343.44;8606254;33;20422;-77
2022/02/19 23:20:07;;;;;;;3.05;2.47;;;;;;;1.59;93.79;99327.34;8602603;33;20512;-77
2022/02/19 23:25:12;;;;;;;2.45;2.22;;;;;;;1.74;92.76;99318.50;8610681;33;20675;-78
2022/02/19 23:30:15;;;;;;;2.85;2.53;;;;;;;1.77;93.15;99325.41;8607900;33;20602;-77
2022/02/19 23:35:18;;;;;;;3.03;2.73;;;;;;;1.72;93.48;99328.31;8606596;33;20595;-77
2022/02/19 23:40:22;;;;;;;6.87;4.30;;;;;;;1.81;92.81;99343.66;8605467;33;20438;-77
2022/02/19 23:45:26;;;;;;;3.33;3.03;;;;;;;1.72;93.71;99330.97;8610874;33;20917;-77
2022/02/19 23:50:29;;;;;;;5.90;2.57;;;;;;;1.94;92.37;99304.84;8607731;33;20899;-78
2022/02/19 23:55:33;;;;;;;5.30;3.20;;;;;;;1.78;92.70;99277.63;8605330;33;21588;-77
